Time;durP1;ratioP1;P1;durP2;ratioP2;P2;SDS_P1;SDS_P2;PMS_P1;PMS_P2;Temp;Humidity;BMP_temperature;BMP_pressure;BME280_temperature;BME280_humidity;BME280_pressure;Samples;Min_cycle;Max_cycle;Signal;HPM_P1;HPM_P2
2021/06/27 10:38:06;;;;;;;9.93;8.93;;;;;;;41.04;26.36;99188.63;3371075;29;20049;-79
2021/06/27 10:40:07;;;;;;;13.75;9.43;;;;;;;41.05;26.89;99181.84;3382271;29;20538;-75
2021/06/27 10:41:59;;;;;;;9.65;8.77;;;;;;;41.08;27.10;99195.03;3350740;29;20041;-75
2021/06/27 10:44:01;;;;;;;10.00;9.05;;;;;;;41.28;27.01;99186.03;3387130;29;20052;-76
2021/06/27 10:45:49;;;;;;;9.45;8.63;;;;;;;41.40;27.15;99193.91;3388134;29;20082;-75
2021/06/27 10:47:34;;;;;;;9.90;8.90;;;;;;;41.44;26.59;99177.06;3373321;29;20049;-75
2021/06/27 10:49:30;;;;;;;10.38;8.95;;;;;;;41.54;26.82;99177.00;3361545;29;20044;-74
2021/06/27 10:51:12;;;;;;;10.50;9.05;;;;;;;41.53;26.77;99169.03;3360842;29;20272;-79
2021/06/27 10:52:53;;;;;;;12.63;9.00;;;;;;;41.48;26.27;99159.03;3357031;29;20041;-77
2021/06/27 10:54:39;;;;;;;12.02;9.60;;;;;;;41.32;26.56;99161.63;3375490;29;20578;-80
2021/06/27 10:56:52;;;;;;;10.88;9.93;;;;;;;41.14;26.69;99167.41;3365632;29;20519;-77
2021/06/27 10:58:37;;;;;;;10.73;9.52;;;;;;;40.90;26.82;99166.41;3362191;29;20550;-79
2021/06/27 11:00:20;;;;;;;9.88;8.52;;;;;;;40.62;27.49;99164.63;3363652;29;20041;-79
2021/06/27 11:02:23;;;;;;;11.00;9.23;;;;;;;40.45;27.42;99178.28;3362923;29;20120;-77
2021/06/27 11:04:22;;;;;;;15.13;9.50;;;;;;;40.13;27.73;99170.88;3374309;29;20059;-77
2021/06/27 11:06:05;;;;;;;10.52;9.63;;;;;;;39.79;27.93;99162.31;3362814;29;20523;-79
2021/06/27 11:07:47;;;;;;;10.30;9.32;;;;;;;39.56;28.20;99164.75;3365225;29;20044;-77
2021/06/27 11:09:28;;;;;;;9.52;8.73;;;;;;;39.36;28.40;99164.41;3361749;29;20040;-80
2021/06/27 11:11:10;;;;;;;;;;;;;;;39.32;28.25;99161.59;3361997;29;20153;-76
2021/06/27 11:13:00;;;;;;;12.65;8.40;;;;;;;39.03;28.09;99158.06;3361594;29;20386;-76
2021/06/27 11:14:41;;;;;;;14.68;7.65;;;;;;;38.87;28.22;99152.88;3362887;29;20104;-79
2021/06/27 11:16:21;;;;;;;8.90;8.00;;;;;;;38.79;28.10;99145.72;3361678;29;20535;-78
2021/06/27 11:18:03;;;;;;;14.40;9.60;;;;;;;38.68;28.52;99150.50;3362331;29;20133;-77
2021/06/27 11:19:44;;;;;;;10.05;8.43;;;;;;;38.59;28.90;99146.09;3362293;29;20432;-74
2021/06/27 11:21:35;;;;;;;10.90;9.57;;;;;;;38.50;28.87;99156.06;3360120;29;20056;-77
2021/06/27 11:23:54;;;;;;;9.70;8.80;;;;;;;38.49;29.10;99149.66;3358084;29;20136;-74
2021/06/27 11:25:42;;;;;;;10.45;9.35;;;;;;;38.41;29.42;99148.03;3345281;29;20040;-75
2021/06/27 11:27:49;;;;;;;10.57;9.52;;;;;;;38.58;29.32;99130.59;3352663;29;20044;-75
2021/06/27 11:29:30;;;;;;;9.50;8.60;;;;;;;38.74;29.33;99135.75;3363140;29;20583;-75
2021/06/27 11:31:27;;;;;;;10.02;8.40;;;;;;;38.98;29.13;99131.41;3376416;29;20055;-75
2021/06/27 11:33:25;;;;;;;9.93;8.88;;;;;;;39.25;29.00;99126.16;3375118;29;20075;-74
2021/06/27 11:35:06;;;;;;;11.27;8.40;;;;;;;39.43;28.59;99134.50;3369378;29;20401;-75
2021/06/27 11:36:48;;;;;;;10.15;8.70;;;;;;;39.59;28.10;99122.09;3365452;29;20053;-73
2021/06/27 11:38:38;;;;;;;11.63;9.18;;;;;;;39.69;28.20;99118.47;3367621;29;20095;-76
2021/06/27 11:40:39;;;;;;;12.05;9.63;;;;;;;39.74;28.19;99120.84;3364262;29;20139;-73
2021/06/27 11:42:26;;;;;;;13.30;9.55;;;;;;;39.72;28.63;99122.44;3364114;29;20116;-74
2021/06/27 11:44:11;;;;;;;10.85;9.82;;;;;;;39.63;28.65;99134.84;3363667;29;20037;-73
2021/06/27 11:45:51;;;;;;;12.13;10.13;;;;;;;39.48;28.33;99127.72;3374804;29;20044;-73
2021/06/27 11:47:33;;;;;;;11.35;10.25;;;;;;;39.34;28.94;99120.19;3376514;29;20051;-73
2021/06/27 11:49:16;;;;;;;10.68;9.43;;;;;;;39.30;29.11;99118.59;3371196;29;20048;-74
2021/06/27 11:50:58;;;;;;;10.93;9.93;;;;;;;39.27;29.43;99114.63;3371412;29;20523;-74
2021/06/27 11:52:39;;;;;;;13.50;10.70;;;;;;;39.25;29.51;99123.38;3375282;29;20511;-74
2021/06/27 11:54:32;;;;;;;11.10;9.88;;;;;;;39.25;29.51;99112.22;3388409;29;20040;-76
2021/06/27 11:56:16;;;;;;;13.43;10.18;;;;;;;39.20;29.72;99115.41;3363883;29;20045;-72
2021/06/27 11:57:57;;;;;;;13.98;11.43;;;;;;;39.20;29.57;99115.41;3363750;29;20580;-74
2021/06/27 11:59:41;;;;;;;14.77;10.52;;;;;;;39.23;29.79;99108.25;3375964;29;20051;-75
2021/06/27 12:01:22;;;;;;;13.98;10.10;;;;;;;39.15;29.35;99095.53;3365362;29;20052;-74
2021/06/27 12:03:10;;;;;;;13.30;10.18;;;;;;;39.04;29.39;99104.72;3363199;29;20401;-74
2021/06/27 12:05:01;;;;;;;10.07;8.40;;;;;;;38.88;28.91;99104.31;3363286;29;20412;-73
2021/06/27 12:06:42;;;;;;;12.48;8.10;;;;;;;38.74;28.64;99099.53;3375181;29;20052;-74
2021/06/27 12:08:23;;;;;;;13.80;9.20;;;;;;;38.69;28.60;99102.72;3376250;29;20140;-74
2021/06/27 12:10:05;;;;;;;;;;;;;;;38.72;28.66;99087.19;3373982;29;20036;-73
2021/06/27 12:11:46;;;;;;;12.38;9.15;;;;;;;38.60;29.00;99105.13;3363498;29;19970;-74
2021/06/27 12:13:28;;;;;;;10.07;8.80;;;;;;;38.49;28.90;99096.75;3362615;29;20493;-74
2021/06/27 12:15:26;;;;;;;9.55;8.07;;;;;;;38.51;28.89;99102.72;3376030;29;20067;-74
2021/06/27 12:17:24;;;;;;;9.38;8.48;;;;;;;38.50;29.70;99097.56;3357553;29;20433;-74
2021/06/27 12:19:05;;;;;;;12.13;10.93;;;;;;;38.40;29.69;99101.91;3363230;29;20043;-76
2021/06/27 12:20:49;;;;;;;14.45;10.88;;;;;;;38.43;30.18;99106.72;3364573;29;20512;-73
2021/06/27 12:22:29;;;;;;;10.52;9.63;;;;;;;38.46;30.49;99105.91;3364670;29;20045;-74
2021/06/27 12:24:10;;;;;;;11.07;10.13;;;;;;;38.52;30.23;99109.91;3364523;29;20048;-74
2021/06/27 12:25:59;;;;;;;13.20;10.35;;;;;;;38.55;30.25;99109.09;3364331;29;20484;-74
2021/06/27 12:27:48;;;;;;;10.68;9.55;;;;;;;38.45;30.36;99098.75;3372941;29;20136;-73
2021/06/27 12:29:29;;;;;;;12.02;10.45;;;;;;;38.37;30.32;99099.91;3377505;29;20566;-73
2021/06/27 12:31:19;;;;;;;12.13;10.57;;;;;;;38.16;30.54;99093.13;3376260;29;20045;-74
2021/06/27 12:33:02;;;;;;;11.77;10.50;;;;;;;37.93;30.68;99101.00;3377022;29;20096;-75
2021/06/27 12:34:42;;;;;;;10.38;9.18;;;;;;;37.71;30.97;99086.22;3377232;29;20508;-73
2021/06/27 12:36:26;;;;;;;13.25;9.75;;;;;;;37.59;31.40;99094.94;3376637;29;20044;-75
2021/06/27 12:38:08;;;;;;;12.07;10.30;;;;;;;37.47;31.43;99088.50;3369748;29;20062;-74
2021/06/27 12:39:49;;;;;;;11.73;10.63;;;;;;;37.38;31.30;99081.69;3377055;29;20051;-73
2021/06/27 12:41:35;;;;;;;10.93;9.93;;;;;;;37.33;31.80;99086.47;3374288;29;20047;-74
2021/06/27 12:43:26;;;;;;;10.75;9.75;;;;;;;37.28;31.76;99075.72;3363676;29;20489;-74
2021/06/27 12:45:20;;;;;;;12.07;10.57;;;;;;;37.21;31.95;99069.31;3373385;29;20131;-72
2021/06/27 12:47:01;;;;;;;9.95;8.95;;;;;;;37.08;31.77;99066.09;3362394;29;20064;-75
2021/06/27 12:48:44;;;;;;;13.48;9.93;;;;;;;37.02;31.69;99076.75;3364318;29;20048;-75
2021/06/27 12:50:38;;;;;;;19.52;11.15;;;;;;;36.97;31.92;99070.72;3364941;29;20044;-74
2021/06/27 12:52:23;;;;;;;13.90;10.07;;;;;;;36.93;32.58;99069.94;3364248;29;20037;-72
2021/06/27 12:54:11;;;;;;;16.75;10.25;;;;;;;36.92;32.09;99060.81;3364121;29;20041;-74
2021/06/27 12:55:55;;;;;;;13.65;9.93;;;;;;;36.90;32.20;99063.16;3361658;29;20048;-75
2021/06/27 12:57:36;;;;;;;11.07;9.80;;;;;;;36.83;32.40;99060.34;3363523;29;20408;-74
2021/06/27 12:59:22;;;;;;;11.35;10.05;;;;;;;36.76;32.74;99055.53;3363761;29;20075;-74
2021/06/27 13:01:03;;;;;;;10.95;9.88;;;;;;;36.69;32.36;99069.38;3362890;29;20036;-75
2021/06/27 13:02:48;;;;;;;10.60;9.23;;;;;;;36.60;32.52;99074.44;3375169;29;20047;-73
2021/06/27 13:04:37;;;;;;;12.63;10.13;;;;;;;36.48;33.15;99075.53;3364896;29;20397;-73
2021/06/27 13:06:18;;;;;;;12.57;11.30;;;;;;;36.34;32.94;99086.50;3361792;29;20048;-75
2021/06/27 13:08:00;;;;;;;12.52;10.30;;;;;;;36.16;33.52;99078.81;3362462;29;20440;-75
2021/06/27 13:10:05;;;;;;;11.07;9.95;;;;;;;36.09;33.71;99091.81;3363595;29;20045;-77
2021/06/27 13:12:05;;;;;;;12.35;11.18;;;;;;;35.95;33.91;99087.69;3363802;29;20154;-78
2021/06/27 13:13:46;;;;;;;11.13;9.98;;;;;;;35.83;33.91;99085.16;3374655;29;20040;-77
2021/06/27 13:15:33;;;;;;;11.57;10.23;;;;;;;35.76;33.99;99079.56;3364913;29;20376;-77
2021/06/27 13:17:21;;;;;;;11.27;10.20;;;;;;;35.66;33.65;99081.03;3360938;29;20468;-75
2021/06/27 13:19:05;;;;;;;15.02;10.18;;;;;;;35.59;33.84;99092.81;3363225;29;20045;-77
2021/06/27 13:20:48;;;;;;;13.30;10.93;;;;;;;35.47;34.09;99081.16;3363777;29;20422;-76
2021/06/27 13:22:29;;;;;;;13.82;10.65;;;;;;;35.37;34.60;99079.84;3364212;29;20045;-77
2021/06/27 13:24:10;;;;;;;13.30;10.45;;;;;;;35.33;34.47;99101.16;3362443;29;20093;-78
2021/06/27 13:25:54;;;;;;;30.63;11.93;;;;;;;35.28;34.38;99109.81;3347452;29;20100;-76
2021/06/27 13:27:36;;;;;;;23.25;10.75;;;;;;;35.22;35.14;99150.13;3356255;29;20072;-76
2021/06/27 13:29:21;;;;;;;55.25;13.30;;;;;;;35.12;35.29;99168.16;3364420;29;20044;-76
2021/06/27 13:31:04;;;;;;;74.97;13.75;;;;;;;34.96;36.29;99171.84;3363892;29;20041;-76
2021/06/27 13:32:45;;;;;;;52.80;11.73;;;;;;;34.76;36.24;99172.31;3363418;29;20044;-77
2021/06/27 13:34:32;;;;;;;55.85;10.38;;;;;;;34.50;37.60;99198.72;3363710;29;20428;-76
2021/06/27 13:36:14;;;;;;;56.40;8.80;;;;;;;34.20;38.53;99228.97;3369261;29;20044;-75
2021/06/27 13:37:56;;;;;;;41.80;8.25;;;;;;;33.85;38.89;99249.94;3363577;29;20061;-76
2021/06/27 13:39:36;;;;;;;;;;;;;;;33.69;38.82;99253.91;3366537;29;20103;-76
2021/06/27 13:41:19;;;;;;;;;;;;;;;33.39;39.16;99257.16;3363629;29;19924;-75
2021/06/27 13:43:02;;;;;;;;;;;;;;;33.16;39.60;99251.47;3377564;29;19930;-75
2021/06/27 13:44:59;;;;;;;;;;;;;;;32.98;39.42;99253.75;3367651;29;19930;-75
2021/06/27 13:46:40;;;;;;;;;;;;;;;32.80;40.01;99251.31;3362718;29;19923;-77
2021/06/27 13:48:21;;;;;;;;;;;;;;;32.68;40.35;99261.63;3373027;29;19977;-76
2021/06/27 13:50:02;;;;;;;;;;;;;;;32.54;39.90;99257.31;3366038;29;19923;-77
2021/06/27 13:51:44;;;;;;;;;;;;;;;32.37;40.81;99268.63;3367250;29;19923;-77
2021/06/27 13:53:25;;;;;;;;;;;;;;;32.17;41.05;99264.94;3363813;29;19956;-76
2021/06/27 13:55:05;;;;;;;;;;;;;;;31.92;42.29;99253.13;3365340;29;19930;-74
2021/06/27 13:56:47;;;;;;;;;;;;;;;31.71;42.46;99243.06;3364642;29;19924;-72
2021/06/27 13:58:28;;;;;;;;;;;;;;;31.54;43.58;99251.56;3376805;29;19985;-74
2021/06/27 14:00:09;;;;;;;;;;;;;;;31.39;43.49;99239.31;3365768;29;19923;-74
2021/06/27 14:01:53;;;;;;;;;;;;;;;31.26;44.17;99232.16;3373029;29;20101;-74
2021/06/27 14:03:33;;;;;;;;;;;;;;;31.12;44.32;99232.50;3362907;29;19935;-72
2021/06/27 14:05:16;;;;;;;;;;;;;;;30.98;46.77;99252.09;3362369;29;19928;-73
2021/06/27 14:06:58;;;;;;;;;;;;;;;30.77;46.97;99260.41;3366909;29;19995;-75
2021/06/27 14:08:38;;;;;;;;;;;;;;;30.57;47.94;99266.75;3363760;29;19967;-73
2021/06/27 14:10:20;;;;;;;;;;;;;;;30.35;47.09;99265.16;3363741;29;19924;-73
2021/06/27 14:12:00;;;;;;;;;;;;;;;30.20;49.54;99269.28;3363516;29;19930;-74
2021/06/27 14:13:41;;;;;;;;;;;;;;;30.09;47.83;99290.09;3364051;29;20387;-73
2021/06/27 14:15:22;;;;;;;;;;;;;;;29.97;47.65;99288.88;3365071;29;19923;-74
2021/06/27 14:17:03;;;;;;;;;;;;;;;29.84;47.46;99297.38;3364060;29;19923;-72
2021/06/27 14:18:44;;;;;;;;;;;;;;;29.71;47.73;99274.50;3373987;29;19988;-77
2021/06/27 14:20:25;;;;;;;;;;;;;;;29.56;47.95;99246.44;3364108;29;20391;-74
2021/06/27 14:22:06;;;;;;;;;;;;;;;29.42;49.89;99169.00;3362122;29;20075;-77
2021/06/27 14:23:47;;;;;;;;;;;;;;;29.32;49.81;99145.47;3363118;29;19980;-76
2021/06/27 14:25:27;;;;;;;;;;;;;;;29.27;50.21;99133.88;3362227;29;19966;-75
2021/06/27 14:27:08;;;;;;;;;;;;;;;29.23;50.37;99132.94;3369880;29;19946;-75
2021/06/27 14:28:48;;;;;;;;;;;;;;;29.20;50.90;99167.34;3375064;29;19923;-72
2021/06/27 14:30:29;;;;;;;;;;;;;;;29.12;52.12;99180.00;3365717;29;20332;-75
2021/06/27 14:32:10;;;;;;;;;;;;;;;28.98;53.22;99179.38;3362173;29;20017;-74
2021/06/27 14:33:51;;;;;;;;;;;;;;;28.82;51.57;99167.34;3362823;29;20385;-71
2021/06/27 14:35:31;;;;;;;;;;;;;;;28.72;51.78;99176.72;3363716;29;19923;-70
2021/06/27 14:37:12;;;;;;;;;;;;;;;28.69;52.12;99191.91;3363612;29;20378;-75
2021/06/27 14:38:53;;;;;;;;;;;;;;;28.66;52.21;99203.53;3363903;29;19924;-74
2021/06/27 14:40:33;;;;;;;;;;;;;;;28.65;52.41;99212.88;3363446;29;20093;-72
2021/06/27 14:42:14;;;;;;;;;;;;;;;28.65;51.84;99209.34;3363082;29;19923;-74
2021/06/27 14:43:54;;;;;;;;;;;;;;;28.64;52.41;99213.22;3363160;29;19979;-72
2021/06/27 14:45:37;;;;;;;;;;;;;;;28.64;51.88;99211.28;3363432;29;20466;-73
2021/06/27 14:47:18;;;;;;;;;;;;;;;28.65;52.26;99207.41;3359422;29;19924;-75
2021/06/27 14:49:00;;;;;;;;;;;;;;;28.68;51.95;99208.69;3362420;29;20413;-74
2021/06/27 14:50:42;;;;;;;;;;;;;;;28.66;52.47;99208.22;3362179;29;19930;-73
2021/06/27 14:52:22;;;;;;;;;;;;;;;28.63;52.09;99206.94;3376157;29;19923;-74
2021/06/27 14:54:03;;;;;;;;;;;;;;;28.59;52.00;99197.75;3363733;29;19928;-73
2021/06/27 14:55:44;;;;;;;;;;;;;;;28.54;52.51;99195.19;3362725;29;20397;-72
2021/06/27 14:57:24;;;;;;;;;;;;;;;28.50;52.33;99188.75;3362660;29;19924;-74
2021/06/27 14:59:05;;;;;;;;;;;;;;;28.46;52.87;99187.78;3367295;29;20307;-72
2021/06/27 15:00:46;;;;;;;;;;;;;;;28.43;52.89;99193.88;3365016;29;19927;-74
2021/06/27 15:02:26;;;;;;;;;;;;;;;28.39;53.07;99185.50;3365106;29;19935;-73
2021/06/27 15:04:07;;;;;;;;;;;;;;;28.36;53.20;99188.09;3365435;29;20383;-72
2021/06/27 15:05:48;;;;;;;;;;;;;;;28.34;53.18;99190.34;3365471;29;20347;-73
2021/06/27 15:07:28;;;;;;;;;;;;;;;28.32;53.76;99185.19;3365594;29;19931;-73
2021/06/27 15:09:09;;;;;;;;;;;;;;;28.31;53.47;99180.03;3364989;29;20031;-73
2021/06/27 15:10:49;;;;;;;;;;;;;;;28.30;53.79;99175.69;3377844;29;19951;-73
2021/06/27 15:12:30;;;;;;;;;;;;;;;28.26;53.29;99173.59;3367775;29;20319;-70
2021/06/27 15:14:10;;;;;;;;;;;;;;;28.27;53.08;99164.25;3364660;29;20030;-73
2021/06/27 15:15:52;;;;;;;;;;;;;;;28.30;53.40;99171.00;3364844;29;19980;-72
2021/06/27 15:17:33;;;;;;;;;;;;;;;28.33;53.05;99172.28;3365048;29;19923;-72
2021/06/27 15:19:13;;;;;;;;;;;;;;;28.36;53.47;99175.19;3368867;29;19929;-71
2021/06/27 15:20:54;;;;;;;;;;;;;;;28.39;53.39;99165.50;3366304;29;20010;-71
2021/06/27 15:22:35;;;;;;;;;;;;;;;28.41;53.45;99169.53;3367018;29;19947;-72
2021/06/27 15:24:16;;;;;;;;;;;;;;;28.43;53.02;99169.22;3365988;29;19923;-72
2021/06/27 15:25:56;;;;;;;;;;;;;;;28.43;53.48;99169.22;3366653;29;19934;-71
2021/06/27 15:27:37;;;;;;;;;;;;;;;28.44;53.49;99163.41;3365461;29;19928;-71
2021/06/27 15:29:18;;;;;;;;;;;;;;;28.46;53.25;99168.59;3363162;29;19982;-72
2021/06/27 15:30:58;;;;;;;;;;;;;;;28.47;53.52;99171.00;3366462;29;19930;-71
2021/06/27 15:32:39;;;;;;;;;;;;;;;28.50;53.61;99172.28;3364223;29;20060;-72
2021/06/27 15:34:20;;;;;;;;;;;;;;;28.49;53.52;99165.19;3365244;29;19928;-71
2021/06/27 15:36:02;;;;;;;;;;;;;;;28.52;53.49;99183.72;3368534;29;19923;-70
2021/06/27 15:37:44;;;;;;;;;;;;;;;28.52;53.23;99182.91;3372238;29;20041;-73
2021/06/27 15:39:24;;;;;;;;;;;;;;;28.52;53.63;99180.97;3373990;29;19928;-73
2021/06/27 15:41:05;;;;;;;;;;;;;;;28.52;53.02;99186.47;3384556;29;19975;-70
2021/06/27 15:42:46;;;;;;;;;;;;;;;28.52;53.36;99180.97;3392227;29;19930;-73
2021/06/27 15:44:26;;;;;;;;;;;;;;;28.51;53.42;99182.13;3382721;29;20042;-73
2021/06/27 15:46:07;;;;;;;;;;;;;;;28.51;53.46;99184.06;3380461;29;20033;-72
2021/06/27 15:47:49;;;;;;;;;;;;;;;28.51;53.21;99187.59;3379449;29;20014;-73
2021/06/27 15:49:30;;;;;;;;;;;;;;;28.49;53.18;99187.13;3380421;29;19923;-74
2021/06/27 15:51:11;;;;;;;;;;;;;;;28.48;53.47;99185.53;3382616;29;19969;-73
2021/06/27 15:52:53;;;;;;;;;;;;;;;28.46;53.24;99185.03;3384438;29;19930;-74
2021/06/27 15:54:35;;;;;;;;;;;;;;;28.42;53.85;99184.88;3383009;29;19923;-73
2021/06/27 15:56:15;;;;;;;;;;;;;;;28.42;53.35;99186.78;3379903;29;19922;-72
2021/06/27 15:57:56;;;;;;;;;;;;;;;28.40;53.67;99183.56;3378493;29;19922;-72
2021/06/27 15:59:37;;;;;;;;;;;;;;;28.38;54.06;99188.56;3379685;29;20025;-74
2021/06/27 16:01:17;;;;;;;;;;;;;;;28.36;53.94;99194.38;3377549;29;19923;-76
2021/06/27 16:02:58;;;;;;;;;;;;;;;28.36;54.23;99204.53;3377090;29;19945;-74
2021/06/27 16:04:39;;;;;;;;;;;;;;;28.35;53.81;99194.72;3375120;29;19954;-74
2021/06/27 16:06:20;;;;;;;;;;;;;;;28.35;54.12;99200.19;3377751;29;20007;-73
2021/06/27 16:08:00;;;;;;;;;;;;;;;28.34;54.26;99209.53;3380718;29;19923;-74
2021/06/27 16:09:41;;;;;;;;;;;;;;;28.32;53.60;99204.41;3377540;29;20271;-74
2021/06/27 16:11:22;;;;;;;;;;;;;;;28.31;53.60;99197.28;3377714;29;20382;-75
2021/06/27 16:13:02;;;;;;;;;;;;;;;28.26;53.78;99201.00;3377681;29;20290;-71
2021/06/27 16:14:43;;;;;;;;;;;;;;;28.23;53.64;99201.66;3378832;29;19924;-72
2021/06/27 16:16:24;;;;;;;;;;;;;;;28.20;53.90;99202.28;3378911;29;19952;-73
2021/06/27 16:18:05;;;;;;;;;;;;;;;28.18;54.22;99204.53;3376940;29;19924;-74
2021/06/27 16:19:46;;;;;;;;;;;;;;;28.15;54.22;99204.41;3377685;29;19923;-72
2021/06/27 16:21:27;;;;;;;;;;;;;;;28.14;53.57;99211.00;3379661;29;19927;-71
2021/06/27 16:23:10;;;;;;;;;;;;;;;28.14;54.32;99208.25;3377845;29;19923;-72
2021/06/27 16:24:50;;;;;;;;;;;;;;;28.13;53.82;99201.97;3377301;29;19924;-73
2021/06/27 16:26:31;;;;;;;;;;;;;;;28.14;54.18;99203.59;3389379;29;20013;-71
2021/06/27 16:28:12;;;;;;;;;;;;;;;28.15;54.03;99213.41;3379983;29;20315;-73
2021/06/27 16:29:52;;;;;;;;;;;;;;;28.16;54.14;99211.47;3377168;29;20314;-72
2021/06/27 16:31:33;;;;;;;;;;;;;;;28.17;53.96;99213.09;3378941;29;19927;-73
2021/06/27 16:33:14;;;;;;;;;;;;;;;28.16;54.14;99216.97;3375930;29;19988;-72
2021/06/27 16:34:55;;;;;;;;;;;;;;;28.15;53.94;99216.16;3376192;29;19924;-73
2021/06/27 16:36:35;;;;;;;;;;;;;;;28.13;53.64;99210.19;3376431;29;19924;-74
2021/06/27 16:38:16;;;;;;;;;;;;;;;28.14;54.13;99211.81;3388511;29;19946;-72
2021/06/27 16:39:56;;;;;;;;;;;;;;;28.14;54.16;99205.50;3375627;29;19923;-77
2021/06/27 16:41:37;;;;;;;;;;;;;;;28.12;54.15;99205.84;3377913;29;19958;-74
2021/06/27 16:43:20;;;;;;;;;;;;;;;28.11;54.18;99192.47;3381002;29;20368;-74
2021/06/27 16:45:04;;;;;;;;;;;;;;;28.09;54.06;99194.72;3377913;29;20017;-72
2021/06/27 16:46:45;;;;;;;;;;;;;;;28.08;53.84;99193.91;3379260;29;19955;-72
2021/06/27 16:48:26;;;;;;;;;;;;;;;28.06;54.25;99185.22;3385483;29;19923;-70
2021/06/27 16:50:08;;;;;;;;;;;;;;;28.05;54.16;99181.66;3381572;29;19931;-74
2021/06/27 16:51:48;;;;;;;;;;;;;;;28.04;53.67;99176.53;3381269;29;19930;-74
2021/06/27 16:53:30;;;;;;;;;;;;;;;28.03;53.75;99172.97;3391193;29;20359;-75
2021/06/27 16:55:11;;;;;;;;;;;;;;;28.03;53.85;99170.22;3383149;29;19958;-72
2021/06/27 16:56:51;;;;;;;;;;;;;;;28.04;54.21;99171.06;3377299;29;19930;-71
2021/06/27 16:58:32;;;;;;;;;;;;;;;28.06;54.17;99171.50;3389293;29;20353;-72
2021/06/27 17:00:13;;;;;;;;;;;;;;;28.07;54.23;99173.13;3379453;29;19930;-73
2021/06/27 17:01:53;;;;;;;;;;;;;;;28.08;53.74;99166.50;3379976;29;20314;-72
2021/06/27 17:03:34;;;;;;;;;;;;;;;28.08;54.14;99163.78;3376821;29;19966;-73
2021/06/27 17:05:15;;;;;;;;;;;;;;;28.08;54.15;99158.28;3377835;29;19971;-74
2021/06/27 17:06:56;;;;;;;;;;;;;;;28.07;54.76;99153.97;3378027;29;19927;-74
2021/06/27 17:08:40;;;;;;;;;;;;;;;28.06;53.98;99160.53;3390286;29;19949;-72
2021/06/27 17:10:21;;;;;;;;;;;;;;;28.05;54.49;99158.94;3390679;29;19926;-72
2021/06/27 17:12:02;;;;;;;;;;;;;;;28.03;54.25;99164.75;3386254;29;19930;-71
2021/06/27 17:13:43;;;;;;;;;;;;;;;28.02;54.54;99162.34;3376937;29;19923;-70
2021/06/27 17:15:24;;;;;;;;;;;;;;;28.00;54.72;99164.59;3377172;29;19979;-72
2021/06/27 17:17:04;;;;;;;;;;;;;;;27.98;54.78;99161.38;3399299;29;20444;-75
2021/06/27 17:18:46;;;;;;;;;;;;;;;27.97;54.87;99155.09;3392542;29;19923;-74
2021/06/27 17:20:27;;;;;;;;;;;;;;;27.96;55.26;99147.19;3376669;29;19923;-72
2021/06/27 17:22:08;;;;;;;;;;;;;;;27.91;55.20;99139.16;3378791;29;19923;-72
2021/06/27 17:23:49;;;;;;;;;;;;;;;27.87;54.75;99138.97;3387602;29;20338;-72
2021/06/27 17:25:29;;;;;;;;;;;;;;;27.86;55.19;99136.59;3389632;29;19923;-72
2021/06/27 17:27:10;;;;;;;;;;;;;;;27.86;55.19;99142.06;3390007;29;19923;-71
2021/06/27 17:28:51;;;;;;;;;;;;;;;27.86;55.11;99136.59;3402339;29;19929;-71
2021/06/27 17:30:31;;;;;;;;;;;;;;;27.84;54.75;99132.22;3388772;29;19970;-71
2021/06/27 17:32:12;;;;;;;;;;;;;;;27.84;54.92;99145.91;3389720;29;19923;-72
2021/06/27 17:33:53;;;;;;;;;;;;;;;27.85;54.88;99135.75;3388643;29;20014;-73
2021/06/27 17:35:33;;;;;;;;;;;;;;;27.85;54.66;99130.28;3389841;29;20022;-72
2021/06/27 17:37:14;;;;;;;;;;;;;;;27.82;54.98;99134.47;3389794;29;19930;-72
2021/06/27 17:38:55;;;;;;;;;;;;;;;27.80;55.18;99127.66;3389631;29;19978;-72
2021/06/27 17:40:36;;;;;;;;;;;;;;;27.77;54.67;99122.84;3389608;29;19923;-73
2021/06/27 17:42:17;;;;;;;;;;;;;;;27.73;54.88;99119.94;3389550;29;19965;-71
2021/06/27 17:43:57;;;;;;;;;;;;;;;27.71;54.87;99124.94;3389543;29;19969;-72
2021/06/27 17:45:38;;;;;;;;;;;;;;;27.69;54.56;99132.66;3389808;29;19923;-71
2021/06/27 17:47:19;;;;;;;;;;;;;;;27.68;54.73;99128.34;3389749;29;19927;-72
2021/06/27 17:48:59;;;;;;;;;;;;;;;27.67;54.52;99129.44;3401503;29;20374;-73
2021/06/27 17:50:40;;;;;;;;;;;;;;;27.68;54.88;99128.34;3392003;29;19962;-71
2021/06/27 17:52:20;;;;;;;;;;;;;;;27.68;54.34;99127.53;3389515;29;19990;-70
2021/06/27 17:54:01;;;;;;;;;;;;;;;27.66;54.79;99138.78;3401581;29;19985;-71
2021/06/27 17:55:43;;;;;;;;;;;;;;;27.66;54.59;99141.53;3392062;29;20018;-72
2021/06/27 17:57:23;;;;;;;;;;;;;;;27.64;54.44;99132.81;3389546;29;19927;-71
2021/06/27 17:59:05;;;;;;;;;;;;;;;27.63;54.24;99128.50;3389180;29;19923;-71
2021/06/27 18:00:45;;;;;;;;;;;;;;;27.63;54.68;99131.22;3389653;29;19923;-72
2021/06/27 18:02:26;;;;;;;;;;;;;;;27.60;54.77;99129.13;3389638;29;20305;-72
2021/06/27 18:04:06;;;;;;;;;;;;;;;27.58;54.72;99134.91;3389648;29;19922;-71
2021/06/27 18:05:47;;;;;;;;;;;;;;;27.57;54.50;99135.22;3389493;29;19930;-71
2021/06/27 18:07:28;;;;;;;;;;;;;;;27.56;55.09;99133.63;3389105;29;19922;-70
2021/06/27 18:09:08;;;;;;;;;;;;;;;27.52;54.49;99146.34;3389338;29;19923;-70
2021/06/27 18:10:49;;;;;;;;;;;;;;;27.46;54.41;99128.47;3389403;29;20374;-72
2021/06/27 18:12:30;;;;;;;;;;;;;;;27.39;54.90;99128.94;3389195;29;20021;-70
2021/06/27 18:14:10;;;;;;;;;;;;;;;27.36;54.96;99135.88;3401174;29;20001;-71
2021/06/27 18:15:51;;;;;;;;;;;;;;;27.34;54.44;99140.06;3391752;29;19929;-72
2021/06/27 18:17:32;;;;;;;;;;;;;;;27.31;54.75;99130.56;3401356;29;19945;-71
2021/06/27 18:19:12;;;;;;;;;;;;;;;27.29;54.88;99123.78;3391515;29;19930;-69
2021/06/27 18:20:53;;;;;;;;;;;;;;;27.28;54.48;99122.16;3389453;29;19923;-72
2021/06/27 18:22:33;;;;;;;;;;;;;;;27.29;54.88;99121.06;3389103;29;19919;-71
2021/06/27 18:24:14;;;;;;;;;;;;;;;27.29;54.77;99118.31;3389292;29;19922;-71
2021/06/27 18:25:56;;;;;;;;;;;;;;;27.30;54.59;99117.97;3389504;29;20382;-71
2021/06/27 18:27:36;;;;;;;;;;;;;;;27.31;54.64;99125.09;3388964;29;19974;-71
2021/06/27 18:29:17;;;;;;;;;;;;;;;27.29;54.88;99116.38;3389255;29;19975;-71
2021/06/27 18:30:57;;;;;;;;;;;;;;;27.26;55.06;99111.56;3389574;29;19970;-71
2021/06/27 18:32:38;;;;;;;;;;;;;;;27.23;54.81;99114.91;3393908;29;19923;-77
2021/06/27 18:34:19;;;;;;;;;;;;;;;27.21;54.82;99117.19;3394277;29;19926;-79
2021/06/27 18:36:00;;;;;;;;;;;;;;;27.18;54.91;99123.25;3377911;29;19974;-74
2021/06/27 18:37:40;;;;;;;;;;;;;;;27.16;54.48;99117.31;3380682;29;19927;-75
2021/06/27 18:39:21;;;;;;;;;;;;;;;27.13;54.97;99117.91;3388797;29;19927;-74
2021/06/27 18:41:03;;;;;;;;;;;;;;;27.11;54.45;99117.44;3388754;29;20009;-74
2021/06/27 18:42:45;;;;;;;;;;;;;;;27.08;54.69;99124.38;3388788;29;19922;-73
2021/06/27 18:44:26;;;;;;;;;;;;;;;27.05;54.48;99127.72;3381190;29;19978;-74
2021/06/27 18:46:07;;;;;;;;;;;;;;;27.04;54.50;99128.03;3375743;29;19923;-75
2021/06/27 18:47:49;;;;;;;;;;;;;;;27.01;54.84;99123.22;3375704;29;20446;-75
2021/06/27 18:49:29;;;;;;;;;;;;;;;27.00;54.67;99127.06;3375580;29;19923;-75
2021/06/27 18:51:10;;;;;;;;;;;;;;;26.98;54.83;99124.66;3375741;29;19970;-77
2021/06/27 18:52:51;;;;;;;;;;;;;;;26.96;54.47;99126.91;3362542;29;19923;-79
2021/06/27 18:54:31;;;;;;;;;;;;;;;26.94;54.44;99124.47;3374533;29;20414;-79
2021/06/27 18:56:12;;;;;;;;;;;;;;;26.92;54.61;99123.97;3375947;29;19923;-78
2021/06/27 18:57:52;;;;;;;;;;;;;;;26.91;54.45;99122.38;3376973;29;20010;-80
2021/06/27 18:59:33;;;;;;;;;;;;;;;26.91;54.67;99121.56;3375815;29;19927;-84
2021/06/27 19:01:13;;;;;;;;;;;;;;;26.89;54.51;99121.06;3362876;29;19974;-79
2021/06/27 19:02:54;;;;;;;;;;;;;;;26.87;54.97;99117.84;3360146;29;19931;-78
2021/06/27 19:04:35;;;;;;;;;;;;;;;26.85;54.65;99118.19;3375367;29;20006;-79
2021/06/27 19:06:16;;;;;;;;;;;;;;;26.83;54.65;99111.41;3377504;29;19923;-77
2021/06/27 19:07:56;;;;;;;;;;;;;;;26.82;54.97;99115.25;3376679;29;19924;-83
2021/06/27 19:09:37;;;;;;;;;;;;;;;26.81;54.69;99119.13;3376485;29;19952;-83
2021/06/27 19:11:18;;;;;;;;;;;;;;;26.80;54.69;99112.84;3376208;29;19935;-76